Time;durP1;ratioP1;P1;durP2;ratioP2;P2;SDS_P1;SDS_P2;PMS_P1;PMS_P2;Temp;Humidity;BMP_temperature;BMP_pressure;BME280_temperature;BME280_humidity;BME280_pressure;Samples;Min_cycle;Max_cycle;Signal;HPM_P1;HPM_P2
2023/09/18 00:00:26;;;;;;;4.80;4.40;;;24.50;59.60;;;;;;4972370;28;20181;-68
2023/09/18 00:02:51;;;;;;;6.10;5.00;;;24.50;59.70;;;;;;4972295;28;20197;-67
2023/09/18 00:05:17;;;;;;;5.30;4.80;;;24.50;59.70;;;;;;4972357;28;20223;-67
2023/09/18 00:07:46;;;;;;;5.00;4.60;;;24.50;59.70;;;;;;4972302;28;20197;-66
2023/09/18 00:10:11;;;;;;;4.47;4.07;;;24.50;59.70;;;;;;4972256;28;20196;-67
2023/09/18 00:12:38;;;;;;;5.30;4.90;;;24.50;59.70;;;;;;4970521;28;20465;-67
2023/09/18 00:15:05;;;;;;;5.33;4.83;;;24.50;59.80;;;;;;4972237;28;20598;-67
2023/09/18 00:17:31;;;;;;;5.40;4.70;;;24.50;59.80;;;;;;4971983;28;20472;-68
2023/09/18 00:19:57;;;;;;;5.07;4.50;;;24.50;59.80;;;;;;4972107;28;20765;-66
2023/09/18 00:22:24;;;;;;;5.47;4.97;;;24.50;59.80;;;;;;4972309;28;20499;-67
2023/09/18 00:24:50;;;;;;;5.67;5.10;;;24.50;59.80;;;;;;4972126;28;20177;-67
2023/09/18 00:27:16;;;;;;;6.40;5.60;;;24.50;59.80;;;;;;4972037;28;20788;-67
2023/09/18 00:29:42;;;;;;;5.50;4.93;;;24.50;59.90;;;;;;4970890;28;20177;-67
2023/09/18 00:32:08;;;;;;;5.53;5.03;;;24.50;59.80;;;;;;4972007;28;20496;-68
2023/09/18 00:34:33;;;;;;;5.23;4.73;;;24.50;59.80;;;;;;4971968;28;20983;-67
2023/09/18 00:36:59;;;;;;;5.40;4.73;;;24.50;59.80;;;;;;4971962;28;20772;-67
2023/09/18 00:39:26;;;;;;;5.83;4.90;;;24.50;59.80;;;;;;4973972;28;20174;-67
2023/09/18 00:41:53;;;;;;;5.40;4.90;;;24.50;59.80;;;;;;4976155;28;20200;-67
2023/09/18 00:44:20;;;;;;;5.40;4.90;;;24.50;59.80;;;;;;4975973;28;20413;-67
2023/09/18 00:46:46;;;;;;;6.20;5.30;;;24.50;59.80;;;;;;4975969;28;20441;-67
2023/09/18 00:49:13;;;;;;;6.13;4.50;;;24.50;59.80;;;;;;4974623;28;20844;-67
2023/09/18 00:51:39;;;;;;;4.90;4.50;;;24.50;59.80;;;;;;4975731;28;20189;-67
2023/09/18 00:54:06;;;;;;;5.67;5.17;;;24.50;59.80;;;;;;4975803;28;20467;-67
2023/09/18 00:56:33;;;;;;;4.80;4.40;;;24.50;59.90;;;;;;4975709;28;20504;-67
2023/09/18 00:59:01;;;;;;;5.10;4.70;;;24.50;59.80;;;;;;4975619;28;20460;-67
2023/09/18 01:01:27;;;;;;;6.17;5.67;;;24.50;59.70;;;;;;4975609;28;20460;-67
2023/09/18 01:03:53;;;;;;;5.77;5.27;;;24.50;59.80;;;;;;4975611;28;20512;-68
2023/09/18 01:06:20;;;;;;;5.20;4.80;;;24.50;59.80;;;;;;4975632;28;20409;-68
2023/09/18 01:08:47;;;;;;;6.07;5.47;;;24.50;59.80;;;;;;4975493;28;20424;-67
2023/09/18 01:11:21;;;;;;;4.80;4.40;;;24.50;59.80;;;;;;4975378;28;20503;-68
2023/09/18 01:14:15;;;;;;;5.30;4.80;;;24.40;59.80;;;;;;4975319;28;21175;-68
2023/09/18 01:17:03;;;;;;;4.27;3.87;;;24.50;59.80;;;;;;4969386;28;20853;-66
2023/09/18 01:19:46;;;;;;;5.17;4.70;;;24.50;59.90;;;;;;4975392;28;20950;-67
2023/09/18 01:22:16;;;;;;;4.63;4.23;;;24.40;59.90;;;;;;4975265;28;21007;-67
2023/09/18 01:24:44;;;;;;;5.53;5.03;;;24.40;59.90;;;;;;4975221;28;20397;-67
2023/09/18 01:27:13;;;;;;;4.97;4.57;;;24.40;59.90;;;;;;4975452;28;20479;-66
2023/09/18 01:29:38;;;;;;;4.53;4.13;;;24.40;59.90;;;;;;4975386;28;20425;-68
2023/09/18 01:32:04;;;;;;;6.20;5.70;;;24.40;59.90;;;;;;4975037;28;20471;-67
2023/09/18 01:34:33;;;;;;;8.10;5.57;;;24.40;59.90;;;;;;4975013;28;20182;-67
2023/09/18 01:37:00;;;;;;;5.27;4.80;;;24.40;59.90;;;;;;4974985;28;20460;-67
2023/09/18 01:39:31;;;;;;;4.90;4.50;;;24.40;59.90;;;;;;4974983;28;20448;-67
2023/09/18 01:41:58;;;;;;;5.83;5.27;;;24.40;59.90;;;;;;4975104;28;20524;-67
2023/09/18 01:44:24;;;;;;;5.17;4.77;;;24.40;59.90;;;;;;4974959;28;20483;-67
2023/09/18 01:46:52;;;;;;;4.80;4.40;;;24.40;59.80;;;;;;4974912;28;20405;-67
2023/09/18 01:49:30;;;;;;;4.90;4.30;;;24.40;59.90;;;;;;4974571;28;20412;-67
2023/09/18 01:51:56;;;;;;;4.80;4.40;;;24.40;59.80;;;;;;4974803;28;20848;-68
2023/09/18 01:54:22;;;;;;;4.50;4.10;;;24.40;59.90;;;;;;4974793;28;20826;-67
2023/09/18 01:56:47;;;;;;;5.27;4.77;;;24.40;59.90;;;;;;4974682;28;20421;-67
2023/09/18 01:59:13;;;;;;;4.90;4.50;;;24.40;59.90;;;;;;4974666;28;20228;-67
2023/09/18 02:01:38;;;;;;;4.30;3.90;;;24.40;59.90;;;;;;4974596;28;20230;-67
2023/09/18 02:04:05;;;;;;;5.03;4.63;;;24.50;60.00;;;;;;4974626;28;20236;-67
2023/09/18 02:06:30;;;;;;;4.83;4.43;;;24.40;59.90;;;;;;4974531;28;20220;-65
2023/09/18 02:08:56;;;;;;;5.00;4.60;;;24.40;60.00;;;;;;4974447;28;20452;-67
2023/09/18 02:11:21;;;;;;;5.10;4.60;;;24.50;60.00;;;;;;4974523;28;20209;-67
2023/09/18 02:13:47;;;;;;;4.73;4.30;;;24.40;60.00;;;;;;4974309;28;20202;-67
2023/09/18 02:16:13;;;;;;;5.00;4.50;;;24.40;59.90;;;;;;4974314;28;20186;-66
2023/09/18 02:18:38;;;;;;;4.90;4.50;;;24.50;60.00;;;;;;4974262;28;20205;-67
2023/09/18 02:21:04;;;;;;;4.67;4.27;;;24.40;59.90;;;;;;4974240;28;20177;-67
2023/09/18 02:23:29;;;;;;;5.70;5.10;;;24.40;59.90;;;;;;4974138;28;20264;-67
2023/09/18 02:25:56;;;;;;;5.50;5.00;;;24.40;59.90;;;;;;4974176;28;20190;-67
2023/09/18 02:28:22;;;;;;;5.27;4.77;;;24.40;59.90;;;;;;4974192;28;20185;-67
2023/09/18 02:30:47;;;;;;;4.83;4.43;;;24.40;59.90;;;;;;4974078;28;20541;-67
2023/09/18 02:33:13;;;;;;;5.73;5.23;;;24.50;60.80;;;;;;4974000;28;20560;-67
2023/09/18 02:35:40;;;;;;;5.40;4.90;;;24.40;59.90;;;;;;4974043;28;20265;-67
2023/09/18 02:38:05;;;;;;;4.63;4.27;;;24.40;59.90;;;;;;4973859;28;20208;-67
2023/09/18 02:40:31;;;;;;;5.03;4.60;;;24.40;59.90;;;;;;4973875;28;20429;-65
2023/09/18 02:42:56;;;;;;;5.50;5.00;;;24.50;60.00;;;;;;4974045;28;20282;-67
2023/09/18 02:45:22;;;;;;;5.20;4.70;;;24.40;60.00;;;;;;4973842;28;20190;-67
2023/09/18 02:47:48;;;;;;;5.43;4.57;;;24.40;59.90;;;;;;4973800;28;20181;-67
2023/09/18 02:50:14;;;;;;;5.70;5.20;;;24.50;60.00;;;;;;4973778;28;20424;-67
2023/09/18 02:52:39;;;;;;;5.97;5.47;;;24.40;59.90;;;;;;4973615;28;20245;-67
2023/09/18 02:55:05;;;;;;;6.23;5.40;;;24.40;60.00;;;;;;4973650;28;20261;-66
2023/09/18 02:57:30;;;;;;;4.80;4.40;;;24.40;60.00;;;;;;4973451;28;20279;-67
2023/09/18 02:59:56;;;;;;;5.00;4.60;;;24.40;60.00;;;;;;4973315;28;20660;-67
2023/09/18 03:02:21;;;;;;;5.40;4.90;;;24.40;59.90;;;;;;4972783;28;20285;-67
2023/09/18 03:04:48;;;;;;;4.77;4.37;;;24.40;60.70;;;;;;4973447;28;20232;-67
2023/09/18 03:07:13;;;;;;;6.03;5.50;;;24.40;59.90;;;;;;4973423;28;20264;-67
2023/09/18 03:09:39;;;;;;;6.00;4.97;;;24.40;59.90;;;;;;4973409;28;20493;-67
2023/09/18 03:12:05;;;;;;;5.00;4.60;;;24.40;60.00;;;;;;4973211;28;20316;-68
2023/09/18 03:14:30;;;;;;;5.67;5.17;;;24.40;60.00;;;;;;4973335;28;20205;-67
2023/09/18 03:16:56;;;;;;;5.70;5.20;;;24.40;59.90;;;;;;4973192;28;20182;-67
2023/09/18 03:19:24;;;;;;;4.90;4.50;;;24.40;60.00;;;;;;4973161;28;20191;-67
2023/09/18 03:21:49;;;;;;;5.10;4.70;;;24.40;60.00;;;;;;4973106;28;20225;-67
2023/09/18 03:24:15;;;;;;;5.13;4.73;;;24.40;60.00;;;;;;4988108;28;20429;-67
2023/09/18 03:26:41;;;;;;;4.80;4.30;;;24.40;60.00;;;;;;4973079;28;20266;-67
2023/09/18 03:29:06;;;;;;;5.33;4.83;;;24.40;59.90;;;;;;4973026;28;20217;-68
2023/09/18 03:31:32;;;;;;;5.37;4.87;;;24.40;59.90;;;;;;4973159;28;20344;-68
2023/09/18 03:33:57;;;;;;;5.90;5.03;;;24.40;59.90;;;;;;4972976;28;20181;-67
2023/09/18 03:36:23;;;;;;;6.20;5.60;;;24.40;59.90;;;;;;4972864;28;20189;-68
2023/09/18 03:38:49;;;;;;;5.50;5.00;;;24.40;59.90;;;;;;4972860;28;20208;-67
2023/09/18 03:41:15;;;;;;;5.33;4.93;;;24.40;59.90;;;;;;4972779;28;20409;-67
2023/09/18 03:43:40;;;;;;;5.93;4.20;;;24.40;59.90;;;;;;4972793;28;20690;-67
2023/09/18 03:46:06;;;;;;;4.50;4.10;;;24.40;59.90;;;;;;4972760;28;20169;-67
2023/09/18 03:48:37;;;;;;;6.00;5.40;;;24.40;59.90;;;;;;4973033;28;20288;-67
2023/09/18 03:51:04;;;;;;;5.40;4.90;;;24.40;59.90;;;;;;4973032;28;20417;-67
2023/09/18 03:53:30;;;;;;;5.53;5.03;;;24.40;59.80;;;;;;4972546;28;20468;-68
2023/09/18 03:55:55;;;;;;;5.17;4.77;;;24.40;59.80;;;;;;4972644;28;20420;-68
2023/09/18 03:58:21;;;;;;;4.90;4.50;;;24.40;59.80;;;;;;4972466;28;20197;-67
2023/09/18 04:00:47;;;;;;;6.10;5.50;;;24.40;59.80;;;;;;4972526;28;20177;-67
2023/09/18 04:03:12;;;;;;;5.10;4.60;;;24.40;59.80;;;;;;4972355;28;20634;-67
2023/09/18 04:05:38;;;;;;;5.33;4.83;;;24.40;59.80;;;;;;4972359;28;20182;-68
2023/09/18 04:08:04;;;;;;;5.50;5.03;;;24.40;59.80;;;;;;4972599;28;20185;-67
2023/09/18 04:10:29;;;;;;;6.17;4.90;;;24.40;59.80;;;;;;4972298;28;20604;-66
2023/09/18 04:12:55;;;;;;;5.70;5.20;;;24.40;59.80;;;;;;4972020;28;20647;-68
2023/09/18 04:15:22;;;;;;;5.60;5.07;;;24.40;59.80;;;;;;4972019;28;20177;-67
2023/09/18 04:17:48;;;;;;;5.30;4.90;;;24.40;59.80;;;;;;4972271;28;20734;-67
2023/09/18 04:20:14;;;;;;;6.73;5.43;;;24.40;59.80;;;;;;4972304;28;20413;-66
2023/09/18 04:22:45;;;;;;;5.20;4.77;;;24.40;59.70;;;;;;4972174;28;20902;-67
2023/09/18 04:25:11;;;;;;;5.37;4.87;;;24.40;59.80;;;;;;4972243;28;20401;-67
2023/09/18 04:27:37;;;;;;;4.90;4.40;;;24.40;59.80;;;;;;4972153;28;20421;-67
2023/09/18 04:30:03;;;;;;;5.40;4.60;;;24.40;59.80;;;;;;4972161;28;20424;-67
2023/09/18 04:32:29;;;;;;;5.70;5.20;;;24.40;59.80;;;;;;4970296;28;20680;-67
2023/09/18 04:34:54;;;;;;;4.73;4.30;;;24.40;59.90;;;;;;4971877;28;20174;-67
2023/09/18 04:37:20;;;;;;;5.00;4.60;;;24.40;59.80;;;;;;4971925;28;20499;-68
2023/09/18 04:39:46;;;;;;;5.37;4.87;;;24.40;59.90;;;;;;4972088;28;20691;-68
2023/09/18 04:42:11;;;;;;;4.67;4.27;;;24.40;59.80;;;;;;4971988;28;20284;-67
2023/09/18 04:44:37;;;;;;;4.97;4.57;;;24.40;59.80;;;;;;4972068;28;20181;-67
2023/09/18 04:47:03;;;;;;;5.57;5.07;;;24.40;59.80;;;;;;4971989;28;20181;-67
2023/09/18 04:49:28;;;;;;;5.20;4.70;;;24.40;59.80;;;;;;4972051;28;20200;-67
2023/09/18 04:51:55;;;;;;;4.60;4.20;;;24.40;59.90;;;;;;4971665;28;20927;-67
2023/09/18 04:54:20;;;;;;;5.73;5.23;;;24.40;59.80;;;;;;4970978;28;20186;-67
2023/09/18 04:56:46;;;;;;;5.10;4.70;;;24.40;59.80;;;;;;4971778;28;20428;-68
2023/09/18 04:59:11;;;;;;;5.60;5.20;;;24.40;59.80;;;;;;4972087;28;20235;-67
2023/09/18 05:01:37;;;;;;;5.37;4.83;;;24.40;59.80;;;;;;4971752;28;20263;-71
2023/09/18 05:04:03;;;;;;;5.20;4.80;;;24.40;59.80;;;;;;4971855;28;20197;-66
2023/09/18 05:06:28;;;;;;;5.00;4.60;;;24.40;59.80;;;;;;4971770;28;20656;-67
2023/09/18 05:08:55;;;;;;;4.93;4.53;;;24.40;60.50;;;;;;4972032;28;20178;-67
2023/09/18 05:11:21;;;;;;;4.80;4.40;;;24.40;59.80;;;;;;4970479;28;20197;-67
2023/09/18 05:13:46;;;;;;;4.77;4.30;;;24.40;59.80;;;;;;4971547;28;20432;-67
2023/09/18 05:16:12;;;;;;;5.67;5.17;;;24.40;59.90;;;;;;4971629;28;20166;-67
2023/09/18 05:18:37;;;;;;;4.77;4.37;;;24.40;60.50;;;;;;4971906;28;20252;-67
2023/09/18 05:21:04;;;;;;;8.10;5.67;;;24.40;59.80;;;;;;4971670;28;20598;-66
2023/09/18 05:23:30;;;;;;;6.43;5.20;;;24.40;59.90;;;;;;4971194;28;20221;-66
2023/09/18 05:25:56;;;;;;;5.13;4.70;;;24.40;59.90;;;;;;4973276;28;20497;-66
2023/09/18 05:28:21;;;;;;;5.93;5.00;;;24.40;59.80;;;;;;4974442;28;20648;-67
2023/09/18 05:30:47;;;;;;;7.10;4.90;;;24.40;59.80;;;;;;4974838;28;20177;-67
2023/09/18 05:33:13;;;;;;;6.80;4.80;;;24.40;59.80;;;;;;4974054;28;20252;-66
2023/09/18 05:35:43;;;;;;;6.00;4.87;;;24.40;59.80;;;;;;4973775;28;20186;-67
2023/09/18 05:38:13;;;;;;;4.90;4.50;;;24.40;59.80;;;;;;4975029;28;20460;-67
2023/09/18 05:40:39;;;;;;;4.70;4.30;;;24.40;59.80;;;;;;4975106;28;20827;-67
2023/09/18 05:43:05;;;;;;;6.20;5.00;;;24.40;59.80;;;;;;4974959;28;20456;-67
2023/09/18 05:45:32;;;;;;;5.27;4.87;;;24.40;59.90;;;;;;4974974;28;20409;-67
2023/09/18 05:48:03;;;;;;;5.70;4.80;;;24.40;59.90;;;;;;4974920;28;20165;-67
2023/09/18 05:50:31;;;;;;;5.70;5.10;;;24.40;59.80;;;;;;4974900;28;20389;-66
2023/09/18 05:53:03;;;;;;;5.10;4.70;;;24.40;59.80;;;;;;4974707;28;20483;-66
2023/09/18 05:55:33;;;;;;;6.30;4.90;;;24.40;59.90;;;;;;4974811;28;20488;-67
2023/09/18 05:57:59;;;;;;;8.00;5.30;;;24.40;59.90;;;;;;4974404;28;20460;-67
2023/09/18 06:00:25;;;;;;;5.70;5.20;;;24.40;59.90;;;;;;4974633;28;20405;-67
2023/09/18 06:02:51;;;;;;;5.33;4.83;;;24.40;59.90;;;;;;4973250;28;20441;-67
2023/09/18 06:05:17;;;;;;;5.30;4.80;;;24.40;59.90;;;;;;4974589;28;20471;-67
2023/09/18 06:07:44;;;;;;;5.27;4.77;;;24.40;59.90;;;;;;4973688;28;20196;-67
2023/09/18 06:10:10;;;;;;;5.30;4.90;;;24.40;59.90;;;;;;4968357;28;20416;-65
2023/09/18 06:12:39;;;;;;;6.50;5.23;;;24.40;60.00;;;;;;4972560;28;20460;-67
2023/09/18 06:15:09;;;;;;;5.20;4.70;;;24.40;60.00;;;;;;4972429;28;21250;-66
2023/09/18 06:17:36;;;;;;;5.30;4.80;;;24.40;59.90;;;;;;4972696;28;20832;-67
2023/09/18 06:20:03;;;;;;;5.90;5.00;;;24.40;59.90;;;;;;4974269;28;20551;-67
2023/09/18 06:22:29;;;;;;;5.50;4.63;;;24.30;59.80;;;;;;4974435;28;20516;-66
2023/09/18 06:24:55;;;;;;;6.83;5.20;;;24.40;60.00;;;;;;4974499;28;20504;-66
2023/09/18 06:27:20;;;;;;;6.70;5.67;;;24.40;59.90;;;;;;4974187;28;20413;-67
2023/09/18 06:29:46;;;;;;;6.33;5.73;;;24.30;60.00;;;;;;4974175;28;20660;-66
2023/09/18 06:32:12;;;;;;;6.20;5.27;;;24.40;60.00;;;;;;4973933;28;20209;-67
2023/09/18 06:34:38;;;;;;;6.50;5.13;;;24.30;60.00;;;;;;4974132;28;20174;-67
2023/09/18 06:37:04;;;;;;;6.50;4.20;;;24.40;60.10;;;;;;4972886;28;20779;-67
2023/09/18 06:39:29;;;;;;;5.10;4.50;;;24.30;60.00;;;;;;4974020;28;20177;-66
2023/09/18 06:41:55;;;;;;;6.57;5.10;;;24.40;60.10;;;;;;4973866;28;20198;-66
2023/09/18 06:44:23;;;;;;;5.83;5.33;;;24.30;60.00;;;;;;4973836;28;20235;-67
2023/09/18 06:46:49;;;;;;;5.20;4.70;;;24.40;60.20;;;;;;4973803;28;20162;-66
2023/09/18 06:49:14;;;;;;;5.53;5.00;;;24.30;60.10;;;;;;4973812;28;20443;-67
2023/09/18 06:51:40;;;;;;;5.10;4.70;;;24.30;60.10;;;;;;4971708;28;20241;-67
2023/09/18 06:54:05;;;;;;;5.33;4.67;;;24.30;60.00;;;;;;4970662;28;20236;-66
2023/09/18 06:56:31;;;;;;;5.30;4.80;;;24.30;60.10;;;;;;4971627;28;20512;-66
2023/09/18 06:58:56;;;;;;;5.87;5.37;;;24.30;60.10;;;;;;4971695;28;20201;-63
2023/09/18 07:01:24;;;;;;;6.20;5.60;;;24.30;60.00;;;;;;4972280;28;20201;-65
2023/09/18 07:03:50;;;;;;;5.80;5.30;;;24.30;60.00;;;;;;4971378;28;20420;-66
2023/09/18 07:06:18;;;;;;;5.10;4.70;;;24.40;60.10;;;;;;4973297;28;20787;-67
2023/09/18 07:08:44;;;;;;;6.80;4.67;;;24.40;60.10;;;;;;4972079;28;20216;-67
2023/09/18 07:11:09;;;;;;;6.43;5.70;;;24.40;60.00;;;;;;4973337;28;20413;-66
2023/09/18 07:13:35;;;;;;;5.87;5.37;;;24.40;60.10;;;;;;4973315;28;20280;-67
2023/09/18 07:16:01;;;;;;;5.13;4.63;;;24.40;60.10;;;;;;4973278;28;20169;-67
2023/09/18 07:18:26;;;;;;;6.97;5.70;;;24.40;60.00;;;;;;4971817;28;20210;-67
2023/09/18 07:20:52;;;;;;;5.70;5.27;;;24.40;60.00;;;;;;4973173;28;20188;-67
2023/09/18 07:23:17;;;;;;;5.57;4.97;;;24.40;60.00;;;;;;4973100;28;20193;-67
2023/09/18 07:25:44;;;;;;;7.07;5.50;;;24.40;60.10;;;;;;4973168;28;20533;-66
2023/09/18 07:28:15;;;;;;;8.40;5.87;;;24.30;60.00;;;;;;4973076;28;20706;-67
2023/09/18 07:30:41;;;;;;;6.77;5.43;;;24.40;60.20;;;;;;4971732;28;20427;-67
2023/09/18 07:33:07;;;;;;;6.90;6.30;;;24.40;60.10;;;;;;4972888;28;20437;-66
2023/09/18 07:35:32;;;;;;;5.70;5.10;;;24.40;60.10;;;;;;4972905;28;20417;-66
2023/09/18 07:37:58;;;;;;;8.43;5.70;;;24.30;60.10;;;;;;4972791;28;20201;-67
2023/09/18 07:40:24;;;;;;;7.50;5.67;;;24.30;60.20;;;;;;4973063;28;20177;-65
2023/09/18 07:42:49;;;;;;;5.83;5.33;;;24.30;60.20;;;;;;4973031;28;20206;-67
2023/09/18 07:45:15;;;;;;;6.40;5.20;;;24.30;60.30;;;;;;4972804;28;20309;-67
2023/09/18 07:47:41;;;;;;;6.00;5.40;;;24.30;60.30;;;;;;4972564;28;20181;-65
2023/09/18 07:50:07;;;;;;;6.10;5.50;;;24.30;60.40;;;;;;4972690;28;20309;-67
2023/09/18 07:52:32;;;;;;;5.57;5.07;;;24.30;60.50;;;;;;4972575;28;20201;-67
2023/09/18 07:54:59;;;;;;;5.40;4.90;;;24.30;60.30;;;;;;4972620;28;20448;-67
2023/09/18 07:57:25;;;;;;;5.53;5.03;;;24.30;60.50;;;;;;4972508;28;20288;-66
2023/09/18 07:59:51;;;;;;;6.33;5.10;;;24.30;60.40;;;;;;4972584;28;20479;-66
2023/09/18 08:02:17;;;;;;;7.07;6.00;;;24.30;60.50;;;;;;4972470;28;20465;-65
2023/09/18 08:04:43;;;;;;;6.20;4.70;;;24.30;60.70;;;;;;4972718;28;20433;-67
2023/09/18 08:07:09;;;;;;;6.67;5.40;;;24.30;60.60;;;;;;4971771;28;20595;-66
2023/09/18 08:09:38;;;;;;;8.97;5.20;;;24.30;60.50;;;;;;4971791;28;20417;-67
2023/09/18 08:12:05;;;;;;;5.13;4.60;;;24.30;60.60;;;;;;4971830;28;20680;-66
2023/09/18 08:14:31;;;;;;;5.47;4.93;;;24.40;60.80;;;;;;4969239;28;20417;-65
2023/09/18 08:16:58;;;;;;;5.70;4.80;;;24.30;60.60;;;;;;4971807;28;20417;-67
2023/09/18 08:19:26;;;;;;;5.40;4.90;;;24.30;60.70;;;;;;4970644;28;20208;-66
2023/09/18 08:21:57;;;;;;;6.10;5.50;;;24.30;60.50;;;;;;4972415;28;20488;-65
2023/09/18 08:24:23;;;;;;;5.27;4.87;;;24.40;60.60;;;;;;4972214;28;20400;-66
2023/09/18 08:26:49;;;;;;;5.30;4.80;;;24.40;60.80;;;;;;4972158;28;20431;-67
2023/09/18 08:29:15;;;;;;;6.20;5.60;;;24.40;60.90;;;;;;4972303;28;20468;-66
2023/09/18 08:31:41;;;;;;;5.80;5.30;;;24.30;60.80;;;;;;4971655;28;20441;-65
2023/09/18 08:34:06;;;;;;;5.40;4.90;;;24.30;60.90;;;;;;4971665;28;20424;-66
2023/09/18 08:36:32;;;;;;;5.73;4.87;;;24.40;60.90;;;;;;4971657;28;20421;-66
2023/09/18 08:38:58;;;;;;;5.63;5.03;;;24.40;61.00;;;;;;4971970;28;20212;-66
2023/09/18 08:41:27;;;;;;;6.80;5.10;;;24.40;60.90;;;;;;4971932;28;20201;-67
2023/09/18 08:43:59;;;;;;;7.33;4.87;;;24.40;60.90;;;;;;4971957;28;20260;-67
2023/09/18 08:46:25;;;;;;;5.77;5.10;;;24.40;60.90;;;;;;4972006;28;20440;-67
2023/09/18 08:48:52;;;;;;;5.07;4.57;;;24.40;61.00;;;;;;4971953;28;20488;-67
2023/09/18 08:51:18;;;;;;;4.93;4.47;;;24.40;60.80;;;;;;4971893;28;20421;-66
2023/09/18 08:53:45;;;;;;;5.50;4.90;;;24.40;60.70;;;;;;4971854;28;20460;-66
2023/09/18 08:56:13;;;;;;;5.07;4.53;;;24.40;61.20;;;;;;4971804;28;20544;-66
2023/09/18 08:58:42;;;;;;;5.50;5.00;;;24.40;61.20;;;;;;4971735;28;20468;-66
2023/09/18 09:01:09;;;;;;;5.63;5.00;;;24.50;61.30;;;;;;4974913;28;20912;-66
2023/09/18 09:03:39;;;;;;;6.43;4.97;;;24.40;61.10;;;;;;4975919;28;20417;-67
2023/09/18 09:06:06;;;;;;;6.27;5.53;;;24.40;61.20;;;;;;4975620;28;20500;-67
2023/09/18 09:08:33;;;;;;;5.63;5.13;;;24.40;61.00;;;;;;4975620;28;20423;-67
2023/09/18 09:10:58;;;;;;;5.90;5.40;;;24.50;61.90;;;;;;4975594;28;20413;-66
2023/09/18 09:13:26;;;;;;;6.00;5.40;;;24.50;61.10;;;;;;4973689;28;20464;-65
2023/09/18 09:15:55;;;;;;;5.17;4.67;;;24.50;61.10;;;;;;4974789;28;20177;-66
2023/09/18 09:18:22;;;;;;;6.20;5.20;;;24.50;61.00;;;;;;4974559;28;20475;-67
2023/09/18 09:21:04;;;;;;;6.30;5.27;;;24.50;61.00;;;;;;4975202;28;20424;-63
2023/09/18 09:24:00;;;;;;;5.67;4.63;;;24.50;60.90;;;;;;4975347;28;20440;-66
2023/09/18 09:26:25;;;;;;;5.80;4.83;;;24.50;61.00;;;;;;4965984;28;20445;-67
2023/09/18 09:28:51;;;;;;;6.27;5.67;;;24.50;60.80;;;;;;4975295;28;20421;-66
2023/09/18 09:31:27;;;;;;;7.03;5.43;;;24.50;61.70;;;;;;4975120;28;20204;-67
2023/09/18 09:33:53;;;;;;;5.67;5.17;;;24.50;60.90;;;;;;4973631;28;20335;-67
2023/09/18 09:36:24;;;;;;;6.33;5.73;;;24.50;60.80;;;;;;4975105;28;20500;-67
2023/09/18 09:38:55;;;;;;;6.07;5.27;;;24.50;60.70;;;;;;4975012;28;20343;-67
2023/09/18 09:41:21;;;;;;;7.60;5.00;;;24.50;60.70;;;;;;4974700;28;20888;-66
2023/09/18 09:43:47;;;;;;;6.10;5.13;;;24.50;60.70;;;;;;4974127;28;20500;-67
2023/09/18 09:46:18;;;;;;;5.37;4.80;;;24.50;60.60;;;;;;4974640;28;20174;-67
2023/09/18 09:49:06;;;;;;;6.60;5.10;;;24.60;60.60;;;;;;4974850;28;20979;-67
2023/09/18 09:51:32;;;;;;;6.00;5.40;;;24.60;60.10;;;;;;4973611;28;20465;-65
2023/09/18 09:53:58;;;;;;;5.80;5.20;;;24.60;60.70;;;;;;4974816;28;20838;-67
2023/09/18 09:56:45;;;;;;;5.90;4.70;;;24.60;60.70;;;;;;4974814;28;20460;-67
2023/09/18 09:59:12;;;;;;;5.23;4.73;;;24.60;60.60;;;;;;4974347;28;20460;-67
2023/09/18 10:01:38;;;;;;;8.20;5.80;;;24.60;60.70;;;;;;4973754;28;20488;-66
2023/09/18 10:04:07;;;;;;;6.47;4.53;;;24.60;60.60;;;;;;4974420;28;20448;-66
2023/09/18 10:06:35;;;;;;;5.70;5.20;;;24.60;60.70;;;;;;4973159;28;20664;-66
2023/09/18 10:09:06;;;;;;;5.57;5.07;;;24.60;60.50;;;;;;4975053;28;20507;-67
2023/09/18 10:11:36;;;;;;;6.90;5.47;;;24.60;60.50;;;;;;4974253;28;20441;-66
2023/09/18 10:14:10;;;;;;;6.67;5.17;;;24.60;60.40;;;;;;4974555;28;20417;-65
2023/09/18 10:16:38;;;;;;;5.70;5.10;;;24.60;60.60;;;;;;4974455;28;20396;-66
2023/09/18 10:19:14;;;;;;;8.40;5.63;;;24.60;60.40;;;;;;4974465;28;20456;-67
2023/09/18 10:22:12;;;;;;;9.17;5.90;;;24.60;60.50;;;;;;4974231;28;20841;-67
2023/09/18 10:24:43;;;;;;;5.93;4.80;;;24.60;61.30;;;;;;4974082;28;20804;-66
2023/09/18 10:27:13;;;;;;;5.93;4.87;;;24.60;60.40;;;;;;4974177;28;20841;-67
2023/09/18 10:29:40;;;;;;;6.43;4.93;;;24.60;60.40;;;;;;4974124;28;20412;-67
2023/09/18 10:32:10;;;;;;;5.17;4.67;;;24.60;60.40;;;;;;4973950;28;20429;-66
2023/09/18 10:34:36;;;;;;;4.87;4.27;;;24.60;60.30;;;;;;4974031;28;20448;-66
2023/09/18 10:37:07;;;;;;;6.70;4.70;;;24.60;60.10;;;;;;4972284;28;20842;-67
2023/09/18 10:39:36;;;;;;;5.93;4.33;;;24.60;60.00;;;;;;4973794;28;20157;-66
2023/09/18 10:42:03;;;;;;;4.50;3.73;;;24.60;60.10;;;;;;4973710;28;20523;-66
2023/09/18 10:44:31;;;;;;;6.47;3.40;;;24.60;60.00;;;;;;4973669;28;20413;-66
2023/09/18 10:46:58;;;;;;;8.47;4.13;;;24.60;60.00;;;;;;4973744;28;20413;-67
2023/09/18 10:49:25;;;;;;;5.67;3.23;;;24.60;59.90;;;;;;4973702;28;20448;-66
2023/09/18 10:51:54;;;;;;;6.13;2.83;;;24.60;59.90;;;;;;4973399;28;20949;-67
2023/09/18 10:54:24;;;;;;;6.07;2.67;;;24.60;59.90;;;;;;4971231;28;20432;-65
2023/09/18 10:56:51;;;;;;;5.17;3.40;;;24.60;59.90;;;;;;4973126;28;20440;-67
2023/09/18 10:59:17;;;;;;;5.80;2.20;;;24.60;59.80;;;;;;4954015;28;20473;-67
2023/09/18 11:01:43;;;;;;;3.20;2.57;;;24.60;59.70;;;;;;4954012;28;20429;-67
2023/09/18 11:04:10;;;;;;;4.03;2.60;;;24.60;59.70;;;;;;4953915;28;20448;-67
2023/09/18 11:06:53;;;;;;;5.30;2.13;;;24.70;59.70;;;;;;4954419;28;20413;-67
2023/09/18 11:09:31;;;;;;;4.40;2.10;;;24.70;59.70;;;;;;4954117;29;20928;-64
2023/09/18 11:11:57;;;;;;;6.13;2.27;;;24.60;59.60;;;;;;4954140;28;20816;-67
2023/09/18 11:14:40;;;;;;;5.50;2.40;;;24.60;59.60;;;;;;4954053;28;20402;-67
2023/09/18 11:17:06;;;;;;;6.17;2.70;;;24.60;59.60;;;;;;4953888;28;20458;-67
2023/09/18 11:19:31;;;;;;;1.97;1.70;;;24.60;59.60;;;;;;4953803;29;20422;-66
2023/09/18 11:22:09;;;;;;;5.00;2.03;;;24.60;59.50;;;;;;4953435;28;20209;-66
2023/09/18 11:24:35;;;;;;;2.33;1.70;;;24.70;59.60;;;;;;4953471;28;20177;-66
2023/09/18 11:27:01;;;;;;;4.80;1.70;;;24.60;59.40;;;;;;4958062;28;20448;-67
2023/09/18 11:29:28;;;;;;;3.50;2.20;;;24.60;59.40;;;;;;4973001;28;20429;-67
2023/09/18 11:31:57;;;;;;;2.77;2.30;;;24.60;59.40;;;;;;4971394;28;20208;-66
2023/09/18 11:34:39;;;;;;;9.03;3.80;;;24.60;59.30;;;;;;4972621;28;20420;-67
2023/09/18 11:37:21;;;;;;;7.90;3.60;;;24.70;59.40;;;;;;4972711;28;20404;-65
2023/09/18 11:39:47;;;;;;;6.63;3.77;;;24.70;59.40;;;;;;4973019;28;20912;-65
2023/09/18 11:42:17;;;;;;;7.27;4.13;;;24.70;59.40;;;;;;4972563;28;20567;-66
2023/09/18 11:44:46;;;;;;;5.70;3.37;;;24.60;59.40;;;;;;4972578;28;20174;-67
2023/09/18 11:47:19;;;;;;;5.90;3.60;;;24.60;59.50;;;;;;4972565;28;20420;-67
2023/09/18 11:49:57;;;;;;;7.43;3.40;;;24.60;59.50;;;;;;4972566;28;20397;-66
2023/09/18 11:52:28;;;;;;;8.43;3.60;;;24.70;59.60;;;;;;4972635;28;20441;-67
2023/09/18 11:54:56;;;;;;;6.10;2.80;;;24.70;59.70;;;;;;4972638;28;20888;-66
2023/09/18 11:57:22;;;;;;;4.23;3.10;;;24.60;59.60;;;;;;4972288;28;20465;-67
2023/09/18 11:59:50;;;;;;;6.60;3.37;;;24.70;59.70;;;;;;4972471;28;20417;-67
2023/09/18 12:02:36;;;;;;;4.60;2.90;;;24.70;59.80;;;;;;4972376;28;20615;-66
2023/09/18 12:05:20;;;;;;;6.30;2.27;;;24.70;59.80;;;;;;4971956;28;21290;-66
2023/09/18 12:07:47;;;;;;;5.67;3.23;;;24.70;59.90;;;;;;4972435;28;20415;-67
2023/09/18 12:10:16;;;;;;;5.83;3.23;;;24.70;60.10;;;;;;4972075;28;20417;-66
2023/09/18 12:12:43;;;;;;;7.10;2.60;;;24.70;60.20;;;;;;4972013;28;20464;-66
2023/09/18 12:15:12;;;;;;;6.10;2.50;;;24.70;60.40;;;;;;4972146;28;20416;-66
2023/09/18 12:17:37;;;;;;;4.40;2.73;;;24.70;60.30;;;;;;4972004;28;20456;-67
2023/09/18 12:20:04;;;;;;;6.50;2.03;;;24.70;60.40;;;;;;4972057;28;20416;-65
2023/09/18 12:22:32;;;;;;;4.20;2.60;;;24.70;60.50;;;;;;4971744;28;20228;-66
2023/09/18 12:25:11;;;;;;;3.20;1.90;;;24.70;60.80;;;;;;4972017;28;20421;-66
2023/09/18 12:27:37;;;;;;;4.73;1.73;;;24.70;60.70;;;;;;4971871;28;20475;-66
2023/09/18 12:30:04;;;;;;;3.40;2.00;;;24.70;60.60;;;;;;4972088;28;20424;-66
2023/09/18 12:32:32;;;;;;;2.83;2.07;;;24.70;60.80;;;;;;4971881;28;20495;-66
2023/09/18 12:34:58;;;;;;;4.70;2.23;;;24.60;60.80;;;;;;4969460;28;20516;-66
2023/09/18 12:37:24;;;;;;;2.77;1.80;;;24.70;60.90;;;;;;4971631;28;20595;-66
2023/09/18 12:39:51;;;;;;;3.17;2.23;;;24.70;61.10;;;;;;4971340;28;20436;-67
2023/09/18 12:42:21;;;;;;;2.43;1.67;;;24.60;60.90;;;;;;4971585;28;20448;-66
2023/09/18 12:44:48;;;;;;;4.43;2.50;;;24.70;60.80;;;;;;4968234;28;20421;-66
2023/09/18 12:47:14;;;;;;;4.07;2.30;;;24.70;60.70;;;;;;4970511;28;20507;-65
2023/09/18 12:49:40;;;;;;;3.00;1.80;;;24.70;60.70;;;;;;4970005;28;20512;-66